Chicago, Illinois
Traffic Map
Current Weather Conditions
Chicago, Illinois
Few Clouds
Few Clouds
24°
Feels Like: 24°
Wind Chill: 24° Ceiling: Unl
Heat Index: 24° Visibility: 10mi
Dew Point: 15° Wind: 5mph
Humidity: 57% Direction: 250° (WSW)
Pressure: 29.92in Gusts: 0mph
Raw Report DataKMDW 030151Z 25004KT 10SM FEW070 24/15 A2992 RMK AO2 SLP123 T02390150 $
Traffic Incident Summary
Active as of:
Severity:
Category:
InformationThere was an issue retrieving the traffic information for this location. Please try a different location or try again shortly.
Advertisements
Track Severe Weather on mobile